.
WxDataArchive / Data Records for 2009-07-08
2009-07-07 July 2009 2009-07-09

Data Records for Wednesday, 08 July 2009

Time	Temp	Chill	HIndex	Humid	Dewpt	 Wind 	HiWind	WindDir	Rain 	Barom 
-----	----	-----	------	-----	-----	------	------	-------	-----	----- 
00:00	62.4	62.4	62.4	62	49.2	0	0	---	0.00	29.922 
00:05	62.1	62.1	62.1	62	48.9	0	0	---	0.00	29.922 
00:10	61.8	61.8	61.8	63	49.1	0	0	---	0.00	29.922 
00:15	61.3	61.3	61.3	64	49.0	0	0	---	0.00	29.922 
00:20	61.2	61.2	61.2	64	48.9	0	0	---	0.00	29.922 
00:25	60.9	60.9	60.9	65	49.1	0	0	---	0.00	29.922 
00:30	60.5	60.5	60.5	66	49.1	0	0	---	0.00	29.924 
00:35	60.2	60.2	60.2	67	49.2	0	0	---	0.00	29.924 
00:40	59.9	59.9	59.9	67	48.9	0	0	---	0.00	29.924 
00:45	59.6	59.6	59.6	68	49.0	0	0	---	0.00	29.921 
00:50	59.3	59.3	59.3	69	49.1	0	0	---	0.00	29.921 
00:55	59.2	59.2	59.2	69	49.0	0	0	---	0.00	29.921 
01:00	58.9	58.9	58.9	70	49.1	0	0	---	0.00	29.920 
01:05	58.7	58.7	58.7	71	49.3	0	0	---	0.00	29.920 
01:10	58.4	58.4	58.4	72	49.4	0	0	---	0.00	29.920 
01:15	58.1	58.1	58.1	72	49.1	0	0	---	0.00	29.917 
01:20	57.8	57.8	57.8	72	48.8	0	0	---	0.00	29.917 
01:25	57.6	57.6	57.6	73	49.0	0	0	---	0.00	29.917 
01:30	57.6	57.6	57.6	73	49.0	0	0	---	0.00	29.919 
01:35	57.6	57.6	57.6	73	49.0	0	0	---	0.00	29.919 
01:40	57.5	57.5	57.5	74	49.3	0	0	---	0.00	29.919 
01:45	57.5	57.5	57.5	74	49.3	0	0	---	0.00	29.920 
01:50	57.3	57.3	57.3	74	49.1	0	0	---	0.00	29.920 
01:55	57.2	57.2	57.2	74	49.0	0	0	---	0.00	29.920 
02:00	57.0	57.0	57.0	74	48.8	0	0	---	0.00	29.922 
02:05	56.9	56.9	56.9	74	48.7	0	0	---	0.00	29.922 
02:10	56.7	56.7	56.7	75	48.9	0	0	---	0.00	29.922 
02:15	56.5	56.5	56.5	75	48.7	0	0	---	0.00	29.924 
02:20	56.3	56.3	56.3	76	48.8	0	0	---	0.00	29.924 
02:25	56.2	56.2	56.2	76	48.7	0	0	---	0.00	29.924 
02:30	55.9	55.9	55.9	77	48.8	0	0	---	0.00	29.921 
02:35	55.7	55.7	55.7	77	48.6	0	0	---	0.00	29.921 
02:40	55.6	55.6	55.6	78	48.8	0	0	---	0.00	29.921 
02:45	55.4	55.4	55.4	79	49.0	0	0	---	0.00	29.921 
02:50	55.3	55.3	55.3	80	49.2	0	0	---	0.00	29.921 
02:55	55.1	55.1	55.1	80	49.0	0	0	---	0.00	29.921 
03:00	55.0	55.0	55.0	80	48.9	0	0	---	0.00	29.918 
03:05	54.8	54.8	54.8	80	48.7	0	0	---	0.00	29.918 
03:10	54.7	54.7	54.7	79	48.3	0	0	---	0.00	29.918 
03:15	54.7	54.7	54.7	79	48.3	0	0	---	0.00	29.921 
03:20	54.5	54.5	54.5	78	47.8	0	0	---	0.00	29.921 
03:25	54.5	54.5	54.5	78	47.8	0	0	---	0.00	29.921 
03:30	54.4	54.4	54.4	77	47.3	0	0	---	0.00	29.920 
03:35	54.4	54.4	54.4	78	47.7	0	0	---	0.00	29.920 
03:40	54.2	54.2	54.2	79	47.8	0	0	---	0.00	29.920 
03:45	54.1	54.1	54.1	79	47.7	0	0	---	0.00	29.929 
03:50	53.9	53.9	53.9	79	47.5	0	0	---	0.00	29.929 
03:55	53.8	53.8	53.8	79	47.4	0	0	---	0.00	29.929 
04:00	53.5	53.5	53.5	79	47.1	0	0	---	0.00	29.933 
04:05	53.5	53.5	53.5	80	47.5	0	0	---	0.00	29.933 
04:10	53.3	53.3	53.3	80	47.3	0	0	---	0.00	29.933 
04:15	53.3	53.3	53.3	80	47.3	0	0	---	0.00	29.934 
04:20	53.2	53.2	53.2	80	47.2	0	0	---	0.00	29.934 
04:25	53.1	53.1	53.1	81	47.4	0	0	---	0.00	29.934 
04:30	53.1	53.1	53.1	81	47.4	0	0	---	0.00	29.933 
04:35	52.9	52.9	52.9	81	47.2	0	0	---	0.00	29.933 
04:40	52.9	52.9	52.9	81	47.2	0	0	---	0.00	29.933 
04:45	52.8	52.8	52.8	81	47.1	0	0	---	0.00	29.934 
04:50	52.6	52.6	52.6	81	46.9	0	0	---	0.00	29.934 
04:55	52.5	52.5	52.5	82	47.2	0	0	---	0.00	29.934 
05:00	52.3	52.3	52.3	82	47.0	0	0	---	0.00	29.936 
05:05	52.3	52.3	52.3	82	47.0	0	0	---	0.00	29.936 
05:10	52.2	52.2	52.2	83	47.2	0	0	---	0.00	29.936 
05:15	52.2	52.2	52.2	83	47.2	0	0	---	0.00	29.938 
05:20	52.0	52.0	52.0	84	47.3	0	0	---	0.00	29.938 
05:25	51.9	51.9	51.9	84	47.2	0	0	---	0.00	29.938 
05:30	51.7	51.7	51.7	84	47.0	0	0	---	0.00	29.942 
05:35	51.7	51.7	51.7	84	47.0	0	0	---	0.00	29.942 
05:40	51.6	51.6	51.6	84	46.9	0	0	---	0.00	29.942 
05:45	51.4	51.4	51.4	85	47.0	0	0	---	0.00	29.944 
05:50	51.3	51.3	51.3	85	46.9	0	0	---	0.00	29.944 
05:55	51.3	51.3	51.3	85	46.9	0	0	---	0.00	29.944 
06:00	51.3	51.3	51.3	86	47.3	0	0	---	0.00	29.948 
06:05	51.4	51.4	51.4	86	47.4	0	0	---	0.00	29.948 
06:10	51.4	51.4	51.4	85	47.0	0	0	---	0.00	29.948 
06:15	51.3	51.3	51.3	85	46.9	0	0	---	0.00	29.954 
06:20	51.3	51.3	51.3	85	46.9	0	0	---	0.00	29.954 
06:25	51.3	51.3	51.3	85	46.9	0	0	---	0.00	29.954 
06:30	51.3	51.3	51.3	85	46.9	0	0	---	0.00	29.958 
06:35	51.3	51.3	51.3	85	46.9	0	0	---	0.00	29.958 
06:40	51.4	51.4	51.4	86	47.4	0	0	---	0.00	29.958 
06:45	51.7	51.7	51.7	86	47.6	0	0	---	0.00	29.960 
06:50	52.0	52.0	52.0	86	47.9	0	0	---	0.00	29.960 
06:55	52.3	52.3	52.3	85	47.9	0	0	---	0.00	29.960 
07:00	52.6	52.6	52.6	85	48.2	0	0	---	0.00	29.963 
07:05	52.9	52.9	52.9	84	48.2	0	0	---	0.00	29.963 
07:10	53.2	53.2	53.2	84	48.5	0	0	---	0.00	29.963 
07:15	53.6	53.6	53.6	84	48.9	0	0	---	0.00	29.965 
07:20	54.1	54.1	54.1	84	49.4	0	0	---	0.00	29.965 
07:25	54.4	54.4	54.4	83	49.3	0	0	---	0.00	29.965 
07:30	54.8	54.8	54.8	81	49.1	0	0	---	0.00	29.967 
07:35	55.3	55.3	55.3	81	49.6	0	0	---	0.00	29.967 
07:40	55.6	55.6	55.6	80	49.5	0	0	---	0.00	29.967 
07:45	56.0	56.0	56.0	77	48.9	0	1	68	0.00	29.966 
07:50	56.5	56.5	56.5	77	49.4	0	1	68	0.00	29.966 
07:55	56.6	56.6	56.6	76	49.1	0	0	---	0.00	29.966 
08:00	56.7	56.7	56.7	75	48.9	0	1	68	0.00	29.979 
08:05	56.9	56.9	56.9	76	49.4	0	0	---	0.00	29.979 
08:10	57.2	57.2	57.2	76	49.7	0	0	---	0.00	29.979 
08:15	58.1	58.1	58.1	73	49.5	0	1	68	0.00	29.982 
08:20	59.5	59.5	59.5	72	50.5	0	1	68	0.00	29.982 
08:25	60.5	60.5	60.5	68	49.9	0	1	68	0.00	29.982 
08:30	60.9	60.9	60.9	68	50.3	0	1	68	0.00	29.985 
08:35	61.0	61.0	61.0	69	50.8	0	1	68	0.00	29.985 
08:40	60.9	60.9	60.9	68	50.3	0	1	68	0.00	29.985 
08:45	60.7	60.7	60.7	68	50.1	0	1	68	0.00	29.987 
08:50	60.7	60.7	60.7	69	50.5	0	1	68	0.00	29.987 
08:55	60.7	60.7	60.7	68	50.1	0	2	45	0.00	29.987 
09:00	60.9	60.9	60.9	69	50.7	0	0	---	0.00	29.989 
09:05	61.0	61.0	61.0	69	50.8	0	1	45	0.00	29.989 
09:10	61.5	61.5	61.5	70	51.6	0	1	45	0.00	29.989 
09:15	61.8	61.8	61.8	69	51.5	0	2	45	0.00	29.989 
09:20	62.1	62.1	62.1	68	51.4	1	2	45	0.00	29.989 
09:25	62.6	62.6	62.6	69	52.3	0	1	338	0.00	29.989 
09:30	62.9	62.9	62.9	66	51.4	1	3	22	0.00	29.989 
09:35	63.7	63.7	63.7	66	52.1	1	3	45	0.00	29.989 
09:40	64.7	64.7	64.7	65	52.7	1	3	90	0.00	29.989 
09:45	65.6	65.6	65.6	63	52.7	0	3	90	0.00	29.991 
09:50	66.6	66.6	66.6	61	52.7	1	3	90	0.00	29.991 
09:55	67.4	67.4	67.4	59	52.6	1	4	90	0.00	29.991 
10:00	68.1	68.1	68.1	59	53.2	0	2	90	0.00	29.990 
10:05	68.8	68.8	68.8	55	52.0	2	4	90	0.00	29.990 
10:10	69.1	69.1	69.1	56	52.7	1	5	112	0.00	29.990 
10:15	69.3	69.3	69.3	54	51.9	2	5	90	0.00	29.993 
10:20	69.6	69.6	69.6	55	52.7	1	3	90	0.00	29.993 
10:25	70.3	70.3	70.3	53	52.3	1	3	90	0.00	29.993 
10:30	70.8	70.8	70.8	51	51.8	2	6	90	0.00	29.991 
10:35	70.8	70.8	70.8	51	51.8	2	4	112	0.00	29.991 
10:40	70.8	70.8	70.8	51	51.8	1	3	90	0.00	29.991 
10:45	71.5	71.5	71.5	50	51.9	1	4	90	0.00	29.988 
10:50	72.0	72.0	72.0	48	51.2	1	6	135	0.00	29.988 
10:55	72.1	72.1	72.1	48	51.3	1	5	90	0.00	29.988 
11:00	71.8	71.8	71.8	48	51.0	2	5	90	0.00	29.989 
11:05	72.0	72.0	72.0	51	52.9	0	2	68	0.00	29.989 
11:10	72.7	72.7	72.7	46	50.7	1	3	90	0.00	29.989 
11:15	73.0	73.0	73.0	46	51.0	2	5	112	0.00	29.993 
11:20	73.3	73.3	73.3	45	50.7	1	3	112	0.00	29.993 
11:25	73.9	73.9	73.9	47	52.4	1	5	112	0.00	29.993 
11:30	73.9	73.9	73.9	43	50.0	2	5	90	0.00	29.993 
11:35	73.7	73.7	73.7	45	51.0	1	4	90	0.00	29.993 
11:40	73.9	73.9	73.9	44	50.6	1	3	90	0.00	29.993 
11:45	73.7	73.7	73.7	46	51.6	1	5	90	0.00	29.993 
11:50	73.9	73.9	73.9	47	52.4	0	2	90	0.00	29.993 
11:55	73.9	73.9	73.9	45	51.2	0	1	90	0.00	29.993 
12:00	74.0	74.0	74.0	45	51.3	1	4	90	0.00	29.992 
12:05	74.0	74.0	74.0	43	50.1	2	4	112	0.00	29.992 
12:10	74.2	74.2	74.2	42	49.6	1	3	112	0.00	29.992 
12:15	74.6	74.6	74.6	47	53.0	1	6	90	0.00	29.992 
12:20	74.6	74.6	74.6	40	48.7	2	5	90	0.00	29.992 
12:25	74.2	74.2	74.2	41	49.0	1	4	112	0.00	29.992 
12:30	74.2	74.2	74.2	47	52.7	1	4	112	0.00	29.993 
12:35	74.7	74.7	74.7	42	50.1	2	6	90	0.00	29.993 
12:40	75.3	75.3	77.6	40	49.3	1	3	90	0.00	29.993 
12:45	75.4	75.4	77.6	41	50.0	1	3	90	0.00	29.993 
12:50	75.8	75.8	77.7	39	49.1	0	2	90	0.00	29.993 
12:55	76.1	76.1	77.9	41	50.7	1	4	112	0.00	29.993 
13:00	76.0	76.0	77.8	40	49.9	3	7	90	0.00	29.990 
13:05	76.0	76.0	77.8	40	49.9	2	5	90	0.00	29.990 
13:10	76.1	76.1	77.8	39	49.3	1	3	90	0.00	29.990 
13:15	76.3	76.3	77.9	40	50.2	1	3	90	0.00	29.987 
13:20	76.7	76.7	78.0	38	49.2	1	3	90	0.00	29.987 
13:25	77.0	77.0	78.2	40	50.8	0	3	90	0.00	29.987 
13:30	76.8	76.8	78.1	39	49.9	2	4	90	0.00	29.984 
13:35	76.1	76.1	77.9	40	50.0	1	5	90	0.00	29.984 
13:40	76.3	76.3	78.0	43	52.1	1	2	90	0.00	29.984 
13:45	77.2	77.2	78.1	36	48.2	2	6	90	0.00	29.982 
13:50	77.6	77.6	78.3	36	48.5	1	3	112	0.00	29.982 
13:55	77.6	77.6	78.2	34	47.0	2	6	68	0.00	29.982 
14:00	77.7	77.7	78.1	32	45.5	1	4	90	0.00	29.980 
14:05	78.3	78.3	78.4	32	46.0	0	3	90	0.00	29.980 
14:10	78.6	78.6	78.7	35	48.6	1	4	90	0.00	29.980 
14:15	79.0	79.0	78.7	31	45.8	2	5	90	0.00	29.976 
14:20	79.2	79.2	78.9	33	47.6	1	3	90	0.00	29.976 
14:25	79.4	79.4	79.0	33	47.8	0	2	90	0.00	29.976 
14:30	79.2	79.2	78.7	30	45.1	1	4	90	0.00	29.976 
14:35	79.2	79.2	79.0	34	48.4	1	5	68	0.00	29.976 
14:40	79.2	79.2	78.6	28	43.3	2	6	270	0.00	29.976 
14:45	79.2	79.2	78.6	28	43.3	1	5	90	0.00	29.977 
14:50	79.6	79.6	79.0	30	45.4	1	5	90	0.00	29.977 
14:55	79.6	79.6	78.8	28	43.6	1	4	90	0.00	29.977 
15:00	79.4	79.4	78.9	31	46.1	1	4	112	0.00	29.977 
15:05	79.0	79.0	78.5	28	43.1	1	4	112	0.00	29.977 
15:10	78.6	78.6	78.4	30	44.6	0	2	112	0.00	29.977 
15:15	78.1	78.1	78.5	35	48.2	0	1	112	0.00	29.979 
15:20	77.9	77.9	78.3	34	47.2	0	1	112	0.00	29.979 
15:25	77.7	77.7	78.3	35	47.8	1	4	135	0.00	29.979 
15:30	77.4	77.4	78.1	35	47.6	2	4	90	0.00	29.981 
15:35	77.2	77.2	78.0	34	46.6	1	4	90	0.00	29.981 
15:40	77.2	77.2	78.1	36	48.2	1	3	90	0.00	29.981 
15:45	77.4	77.4	78.1	34	46.8	0	1	90	0.00	29.981 
15:50	77.6	77.6	78.2	35	47.8	0	4	90	0.00	29.981 
15:55	77.6	77.6	78.2	35	47.8	1	3	112	0.00	29.981 
16:00	77.6	77.6	78.2	35	47.8	0	2	112	0.00	29.978 
16:05	77.6	77.6	78.1	33	46.2	0	2	112	0.00	29.978 
16:10	77.6	77.6	78.1	33	46.2	0	2	112	0.00	29.978 
16:15	77.4	77.4	78.1	34	46.8	0	1	112	0.00	29.981 
16:20	77.0	77.0	77.8	32	44.9	0	2	112	0.00	29.981 
16:25	77.0	77.0	77.8	32	44.9	0	2	112	0.00	29.981 
16:30	76.8	76.8	77.7	32	44.7	0	1	45	0.00	29.981 
16:35	76.8	76.8	77.7	31	43.9	0	2	45	0.00	29.981 
16:40	76.8	76.8	77.8	33	45.5	0	1	45	0.00	29.981 
16:45	77.0	77.0	78.0	35	47.2	1	3	45	0.00	29.978 
16:50	76.8	76.8	78.0	37	48.5	1	2	90	0.00	29.978 
16:55	76.7	76.7	77.9	35	47.0	0	1	90	0.00	29.978 
17:00	76.5	76.5	77.9	37	48.3	0	1	90	0.00	29.976 
17:05	76.5	76.5	77.8	35	46.8	0	0	---	0.00	29.976 
17:10	76.5	76.5	77.9	38	49.0	0	2	90	0.00	29.976 
17:15	76.5	76.5	77.9	37	48.3	0	0	---	0.00	29.975 
17:20	76.5	76.5	77.8	35	46.8	0	0	---	0.00	29.975 
17:25	76.5	76.5	77.8	36	47.5	0	0	---	0.00	29.975 
17:30	76.3	76.3	77.7	35	46.6	0	0	---	0.00	29.975 
17:35	76.3	76.3	77.8	37	48.1	0	0	---	0.00	29.975 
17:40	76.3	76.3	77.7	36	47.4	0	1	90	0.00	29.975 
17:45	76.3	76.3	77.8	37	48.1	0	1	90	0.00	29.975 
17:50	76.3	76.3	77.8	37	48.1	0	1	90	0.00	29.975 
17:55	76.5	76.5	77.9	37	48.3	0	0	---	0.00	29.975 
18:00	76.7	76.7	78.0	37	48.4	0	0	---	0.00	29.971 
18:05	76.7	76.7	78.1	39	49.9	0	1	90	0.00	29.971 
18:10	76.7	76.7	78.0	38	49.2	0	0	---	0.00	29.971 
18:15	76.7	76.7	77.9	36	47.7	0	1	90	0.00	29.967 
18:20	76.7	76.7	78.0	38	49.2	0	1	90	0.00	29.967 
18:25	76.7	76.7	78.0	37	48.4	0	1	90	0.00	29.967 
18:30	76.5	76.5	77.9	38	49.0	0	1	90	0.00	29.968 
18:35	76.5	76.5	77.9	38	49.0	0	1	90	0.00	29.968 
18:40	76.3	76.3	77.9	40	50.2	0	0	---	0.00	29.968 
18:45	76.1	76.1	77.9	42	51.3	0	1	90	0.00	29.974 
18:50	75.8	75.8	77.7	40	49.7	0	1	90	0.00	29.974 
18:55	75.6	75.6	77.7	42	50.9	0	1	90	0.00	29.974 
19:00	75.4	75.4	77.7	42	50.7	0	1	90	0.00	29.978 
19:05	75.4	75.4	77.7	43	51.3	0	0	---	0.00	29.978 
19:10	75.3	75.3	77.7	43	51.2	0	1	90	0.00	29.978 
19:15	75.3	75.3	77.7	43	51.2	0	0	---	0.00	29.977 
19:20	75.1	75.1	77.6	43	51.1	0	1	90	0.00	29.977 
19:25	74.9	74.9	74.9	43	50.9	0	1	90	0.00	29.977 
19:30	74.7	74.7	74.7	44	51.3	0	0	---	0.00	29.977 
19:35	74.6	74.6	74.6	44	51.2	0	0	---	0.00	29.977 
19:40	74.4	74.4	74.4	44	51.0	0	1	90	0.00	29.977 
19:45	74.4	74.4	74.4	46	52.3	0	0	---	0.00	29.979 
19:50	74.2	74.2	74.2	45	51.5	0	1	90	0.00	29.979 
19:55	74.0	74.0	74.0	46	51.9	0	0	---	0.00	29.979 
20:00	74.0	74.0	74.0	47	52.5	0	0	---	0.00	29.978 
20:05	73.9	73.9	73.9	49	53.5	0	0	---	0.00	29.978 
20:10	73.7	73.7	73.7	49	53.3	0	0	---	0.00	29.978 
20:15	73.5	73.5	73.5	49	53.2	0	0	---	0.00	29.973 
20:20	73.5	73.5	73.5	50	53.7	0	0	---	0.00	29.973 
20:25	73.3	73.3	73.3	50	53.5	0	0	---	0.00	29.973 
20:30	73.2	73.2	73.2	51	54.0	0	0	---	0.00	29.976 
20:35	73.0	73.0	73.0	51	53.8	0	0	---	0.00	29.976 
20:40	72.8	72.8	72.8	51	53.6	0	0	---	0.00	29.976 
20:45	72.7	72.7	72.7	52	54.0	0	0	---	0.00	29.977 
20:50	72.5	72.5	72.5	53	54.4	0	0	---	0.00	29.977 
20:55	72.3	72.3	72.3	53	54.2	0	0	---	0.00	29.977 
21:00	72.1	72.1	72.1	53	54.0	0	0	---	0.00	29.986 
21:05	72.1	72.1	72.1	54	54.5	0	0	---	0.00	29.986 
21:10	72.0	72.0	72.0	54	54.4	0	0	---	0.00	29.986 
21:15	72.0	72.0	72.0	54	54.4	0	0	---	0.00	29.979 
21:20	72.0	72.0	72.0	54	54.4	0	0	---	0.00	29.979 
21:25	71.8	71.8	71.8	54	54.2	0	0	---	0.00	29.979 
21:30	71.8	71.8	71.8	54	54.2	0	0	---	0.00	29.983 
21:35	71.6	71.6	71.6	55	54.6	0	0	---	0.00	29.983 
21:40	71.5	71.5	71.5	56	55.0	0	0	---	0.00	29.983 
21:45	71.1	71.1	71.1	56	54.6	0	0	---	0.00	29.989 
21:50	70.9	70.9	70.9	56	54.4	0	0	---	0.00	29.989 
21:55	70.8	70.8	70.8	57	54.8	0	0	---	0.00	29.989 
22:00	70.6	70.6	70.6	58	55.1	0	0	---	0.00	29.995 
22:05	70.4	70.4	70.4	58	54.9	0	0	---	0.00	29.995 
22:10	70.3	70.3	70.3	58	54.8	0	0	---	0.00	29.995 
22:15	70.1	70.1	70.1	58	54.6	0	0	---	0.00	30.001 
22:20	70.1	70.1	70.1	59	55.1	0	0	---	0.00	30.001 
22:25	70.3	70.3	70.3	58	54.8	2	6	112	0.00	30.001 
22:30	70.6	70.6	70.6	55	53.6	1	4	112	0.00	30.017 
22:35	70.8	70.8	70.8	56	54.3	1	2	90	0.00	30.017 
22:40	70.6	70.6	70.6	53	52.6	2	7	68	0.00	30.017 
22:45	70.6	70.6	70.6	51	51.6	1	4	90	0.00	30.022 
22:50	70.6	70.6	70.6	50	51.0	1	3	90	0.00	30.022 
22:55	70.4	70.4	70.4	50	50.9	0	2	90	0.00	30.022 
23:00	70.3	70.3	70.3	50	50.8	1	3	90	0.00	30.027 
23:05	70.3	70.3	70.3	51	51.3	0	1	90	0.00	30.027 
23:10	70.1	70.1	70.1	50	50.6	0	3	90	0.00	30.027 
23:15	69.9	69.9	69.9	50	50.4	1	3	90	0.00	30.031 
23:20	69.9	69.9	69.9	50	50.4	0	2	158	0.00	30.031 
23:25	69.9	69.9	69.9	51	50.9	1	2	158	0.00	30.031 
23:30	69.8	69.8	69.8	51	50.8	2	5	68	0.00	30.032 
23:35	69.6	69.6	69.6	52	51.2	1	4	90	0.00	30.032 
23:40	69.4	69.4	69.4	52	51.0	1	3	90	0.00	30.032 
23:45	69.3	69.3	69.3	53	51.4	0	2	90	0.00	30.040 
23:50	69.1	69.1	69.1	53	51.2	0	1	90	0.00	30.040 
23:55	68.9	68.9	68.9	54	51.6	0	3	90	0.00	30.040 

CoCoRaHS
IN-AL-39
A2 Web Hosting
Creative Commons License
GoDaddy
search engine by freefind advanced

loaded 2018-11-19 11:15:17 • last modified 2010-11-18 10:43:29
Privacy PolicyDisclaimer
• wx.awcolley.com is powered by PmWiki v.2002016 •
• all content (unless otherwise noted) © 2018 A W Colley